Terminal Aerodrome Forecast
Issued by NWS

Home | Current Version | Previous Version | Text Only | Print | Product List | Glossary On
Versions: 1 2 3 4 5 6 7 8 9 10 11 12 13 14
311
FTUS45 KTFX 091733
TAFCTB
TAF
KCTB 091733Z 0918/1018 13006KT P6SM VCSH OVC035
      TEMPO 0918/0920 3SM -SN OVC017
     FM092200 13007KT P6SM VCSH OVC040
     FM100600 12006KT 4SM -SN OVC020
     FM101100 10008KT 2SM -SN BKN005 OVC015
     FM101700 10007KT P6SM -SN OVC010=

USA.gov is the U.S. government's official web portal to all federal, state and local government web resources and services.